Time;durP1;ratioP1;P1;durP2;ratioP2;P2;SDS_P1;SDS_P2;PMS_P1;PMS_P2;Temp;Humidity;BMP_temperature;BMP_pressure;BME280_temperature;BME280_humidity;BME280_pressure;Samples;Min_cycle;Max_cycle;Signal;HPM_P1;HPM_P2
2023/07/15 00:00:33;;;;;;;6.30;4.55;;;;;;;29.97;53.26;98799.50;2056071;28;20061;-54
2023/07/15 00:01:37;;;;;;;9.13;4.53;;;;;;;29.99;53.79;98795.41;2062624;28;20052;-51
2023/07/15 00:02:37;;;;;;;13.23;5.55;;;;;;;29.94;53.90;98786.38;2058691;28;20088;-57
2023/07/15 00:03:39;;;;;;;6.93;4.60;;;;;;;29.97;53.70;98791.31;2056046;28;20054;-57
2023/07/15 00:04:40;;;;;;;9.55;5.68;;;;;;;29.99;53.56;98789.13;2054764;28;22351;-51
2023/07/15 00:05:41;;;;;;;7.53;4.63;;;;;;;30.02;53.40;98794.03;2055847;28;20109;-56
2023/07/15 00:06:44;;;;;;;12.73;5.72;;;;;;;30.01;53.15;98786.94;2060260;28;20050;-52
2023/07/15 00:07:45;;;;;;;7.90;4.57;;;;;;;30.01;52.97;98793.22;2055875;28;20113;-57
2023/07/15 00:08:48;;;;;;;8.88;5.38;;;;;;;29.98;53.01;98791.03;2059337;28;20102;-53
2023/07/15 00:09:49;;;;;;;9.82;6.07;;;;;;;29.95;53.31;98797.06;2058520;28;20070;-57
2023/07/15 00:10:51;;;;;;;8.68;4.50;;;;;;;29.94;52.70;98795.41;2059404;28;20411;-49
2023/07/15 00:11:52;;;;;;;7.75;3.72;;;;;;;29.93;53.34;98788.31;2068175;28;20077;-53
2023/07/15 00:12:54;;;;;;;9.25;4.28;;;;;;;29.94;53.21;98786.38;2059903;28;20058;-48
2023/07/15 00:13:56;;;;;;;9.90;4.70;;;;;;;29.90;52.91;98790.78;2066060;28;20080;-54
2023/07/15 00:15:00;;;;;;;10.40;5.18;;;;;;;29.91;53.52;98782.28;2060352;28;20085;-51
2023/07/15 00:16:02;;;;;;;7.88;4.63;;;;;;;29.92;53.61;98792.16;2058572;28;20223;-51
2023/07/15 00:17:04;;;;;;;10.02;6.38;;;;;;;29.93;53.25;98782.84;2060696;28;20055;-51
2023/07/15 00:18:05;;;;;;;9.55;4.95;;;;;;;29.94;53.83;98787.22;2065716;28;20057;-50
2023/07/15 00:19:07;;;;;;;9.05;4.72;;;;;;;29.88;53.95;98777.38;2061115;28;20054;-53
2023/07/15 00:20:14;;;;;;;11.00;4.88;;;;;;;29.90;54.13;98783.41;2065145;28;20490;-52
2023/07/15 00:21:20;;;;;;;8.85;4.85;;;;;;;29.90;53.38;98780.66;2059328;28;20066;-53
2023/07/15 00:22:21;;;;;;;10.60;5.30;;;;;;;29.89;53.80;98784.47;2057180;28;20072;-53
2023/07/15 00:23:25;;;;;;;10.02;4.82;;;;;;;29.90;54.09;98780.66;2060643;28;20531;-53
2023/07/15 00:24:26;;;;;;;12.38;5.43;;;;;;;29.91;53.64;98781.47;2059528;28;20061;-48
2023/07/15 00:25:30;;;;;;;12.13;6.22;;;;;;;29.89;53.73;98784.47;2056801;28;25606;-50
2023/07/15 00:26:32;;;;;;;12.38;5.75;;;;;;;29.86;53.78;98782.28;2058976;28;20050;-50
2023/07/15 00:27:35;;;;;;;10.05;4.93;;;;;;;29.87;53.87;98781.22;2060091;28;20105;-54
2023/07/15 00:28:36;;;;;;;13.35;5.28;;;;;;;29.87;54.10;98780.41;2058348;28;20058;-56
2023/07/15 00:29:38;;;;;;;10.05;5.55;;;;;;;29.86;53.95;98778.75;2059147;28;20073;-50
2023/07/15 00:30:40;;;;;;;11.00;6.38;;;;;;;29.88;54.01;98782.84;2059362;28;20046;-53
2023/07/15 00:31:43;;;;;;;5.75;4.63;;;;;;;29.88;54.09;98782.84;2060660;28;20539;-55
2023/07/15 00:32:46;;;;;;;13.65;4.43;;;;;;;29.87;54.00;98783.94;2060183;28;20049;-59
2023/07/15 00:33:48;;;;;;;7.78;4.72;;;;;;;29.87;53.94;98775.75;2065351;28;20057;-58
2023/07/15 00:34:49;;;;;;;6.35;5.07;;;;;;;29.87;53.40;98780.41;2057450;28;20058;-58
2023/07/15 00:35:51;;;;;;;10.35;5.95;;;;;;;29.88;53.71;98780.09;2059522;28;21376;-53
2023/07/15 00:36:51;;;;;;;6.43;4.53;;;;;;;29.90;53.72;98780.66;2058926;28;20707;-51
2023/07/15 00:37:53;;;;;;;9.88;4.85;;;;;;;29.90;53.54;98779.84;2058767;28;20047;-55
2023/07/15 00:38:54;;;;;;;11.27;5.22;;;;;;;29.88;53.94;98782.03;2059230;28;20057;-49
2023/07/15 00:39:56;;;;;;;8.15;4.65;;;;;;;29.87;53.74;98780.41;2065787;28;20046;-50
2023/07/15 00:40:57;;;;;;;8.75;4.07;;;;;;;29.87;54.11;98785.88;2054044;28;20053;-52
2023/07/15 00:42:03;;;;;;;9.63;4.95;;;;;;;29.88;53.95;98785.56;2058760;28;20046;-51
2023/07/15 00:43:41;;;;;;;9.80;5.22;;;;;;;29.82;54.17;98784.75;2059875;28;20073;-54
2023/07/15 00:44:43;;;;;;;10.23;5.10;;;;;;;29.82;54.13;98778.47;2059282;28;20056;-50
2023/07/15 00:45:43;;;;;;;9.88;4.68;;;;;;;29.83;54.06;98786.38;2058948;28;20527;-46
2023/07/15 00:47:12;;;;;;;10.07;5.10;;;;;;;29.86;54.17;98789.69;2065324;28;20129;-52
2023/07/15 00:48:21;;;;;;;8.88;5.05;;;;;;;29.82;54.00;98783.94;2056870;28;20580;-48
2023/07/15 00:49:25;;;;;;;9.90;5.03;;;;;;;29.84;54.03;98781.75;2056474;28;20536;-49
2023/07/15 00:50:26;;;;;;;9.18;4.32;;;;;;;29.84;54.03;98788.03;2059506;28;20042;-47
2023/07/15 00:51:29;;;;;;;6.53;4.95;;;;;;;29.88;53.93;98779.28;2059417;28;20046;-51
2023/07/15 00:52:32;;;;;;;10.75;4.40;;;;;;;29.87;54.03;98781.22;2059117;28;20056;-58
2023/07/15 00:53:33;;;;;;;6.38;3.97;;;;;;;29.88;53.54;98784.75;2060504;28;20050;-53
2023/07/15 00:54:37;;;;;;;9.50;4.28;;;;;;;29.87;54.29;98778.47;2058557;28;20117;-47
2023/07/15 00:55:38;;;;;;;13.13;4.80;;;;;;;29.90;53.66;98777.13;2055881;28;20059;-57
2023/07/15 00:56:42;;;;;;;7.40;4.28;;;;;;;29.88;53.54;98780.09;2055312;28;20272;-51
2023/07/15 00:57:43;;;;;;;7.57;5.60;;;;;;;29.88;54.15;98782.03;2059254;28;20042;-51
2023/07/15 00:58:44;;;;;;;11.43;5.20;;;;;;;29.89;53.86;98780.91;2059244;28;20185;-51
2023/07/15 00:59:48;;;;;;;9.52;4.95;;;;;;;29.87;53.69;98783.13;2058684;28;20464;-49
2023/07/15 01:00:49;;;;;;;11.15;4.80;;;;;;;29.86;54.14;98778.75;2059140;28;20050;-55
2023/07/15 01:01:53;;;;;;;11.82;6.28;;;;;;;29.87;53.89;98781.22;2060839;28;20440;-57
2023/07/15 01:02:55;;;;;;;9.73;5.15;;;;;;;29.89;54.18;98784.47;2058549;28;20053;-53
2023/07/15 01:03:57;;;;;;;10.07;4.97;;;;;;;29.86;53.94;98779.56;2057860;28;20047;-51
2023/07/15 01:04:58;;;;;;;13.18;6.13;;;;;;;29.88;54.02;98780.09;2058520;28;21389;-52
2023/07/15 01:06:00;;;;;;;9.63;4.80;;;;;;;29.88;54.01;98782.84;2057865;28;20058;-53
2023/07/15 01:07:01;;;;;;;9.90;4.57;;;;;;;29.89;53.61;98786.38;2057933;28;20069;-53
2023/07/15 01:08:03;;;;;;;7.82;4.75;;;;;;;29.88;53.76;98784.75;2058001;28;20046;-59
2023/07/15 01:09:07;;;;;;;9.50;5.15;;;;;;;29.87;53.17;98783.13;2055067;28;20050;-54
2023/07/15 01:10:09;;;;;;;10.07;5.00;;;;;;;29.87;54.02;98783.13;2058638;28;20393;-49
2023/07/15 01:11:10;;;;;;;8.40;4.28;;;;;;;29.86;53.85;98778.75;2057918;28;20050;-49
2023/07/15 01:12:12;;;;;;;9.30;4.47;;;;;;;29.82;53.63;98775.75;2058156;28;20042;-49
2023/07/15 01:13:13;;;;;;;8.18;4.20;;;;;;;29.86;53.52;98776.81;2055549;28;20042;-50
2023/07/15 01:14:15;;;;;;;10.05;4.72;;;;;;;29.87;53.47;98775.75;2057675;28;20752;-50
2023/07/15 01:15:16;;;;;;;11.15;5.18;;;;;;;29.89;53.93;98775.44;2058900;28;20061;-49
2023/07/15 01:16:17;;;;;;;8.30;4.63;;;;;;;29.89;53.48;98778.19;2057731;28;20052;-50
2023/07/15 01:17:19;;;;;;;8.20;4.38;;;;;;;29.89;53.23;98784.47;2059499;28;20050;-54
2023/07/15 01:18:22;;;;;;;7.85;4.35;;;;;;;29.90;53.14;98780.66;2059292;28;20065;-55
2023/07/15 01:19:23;;;;;;;7.93;4.30;;;;;;;29.86;53.49;98779.56;2058227;28;20153;-53
2023/07/15 01:20:25;;;;;;;5.18;4.22;;;;;;;29.87;53.12;98778.47;2057946;28;20448;-48
2023/07/15 01:21:29;;;;;;;10.68;5.22;;;;;;;29.84;53.78;98781.75;2057443;28;20117;-55
2023/07/15 01:22:35;;;;;;;8.98;5.07;;;;;;;29.86;53.37;98776.81;2056717;28;20054;-55
2023/07/15 01:23:36;;;;;;;11.32;4.40;;;;;;;29.84;53.98;98782.59;2057777;28;20057;-49
2023/07/15 01:24:39;;;;;;;10.25;4.78;;;;;;;29.84;53.97;98776.28;2057884;28;20185;-53
2023/07/15 01:25:39;;;;;;;9.27;5.28;;;;;;;29.85;53.95;98777.94;2057528;28;20061;-49
2023/07/15 01:26:40;;;;;;;6.55;4.97;;;;;;;29.83;54.00;98780.09;2058056;28;20077;-53
2023/07/15 01:27:42;;;;;;;12.18;5.22;;;;;;;29.84;54.12;98782.59;2058204;28;20054;-48
2023/07/15 01:28:43;;;;;;;6.57;4.63;;;;;;;29.82;54.57;98775.75;2054421;28;20420;-47
2023/07/15 01:29:45;;;;;;;11.52;4.90;;;;;;;29.79;54.82;98776.28;2055908;28;20048;-47
2023/07/15 01:30:46;;;;;;;10.65;5.93;;;;;;;29.81;54.70;98787.75;2059065;28;20042;-49
2023/07/15 01:31:47;;;;;;;9.02;4.40;;;;;;;29.80;54.41;98784.22;2055640;28;20132;-51
2023/07/15 01:32:49;;;;;;;10.60;4.72;;;;;;;29.80;54.74;98788.84;2059047;28;20058;-51
2023/07/15 01:33:52;;;;;;;6.22;4.30;;;;;;;29.82;54.51;98783.94;2057492;28;20452;-60
2023/07/15 01:34:53;;;;;;;12.18;5.65;;;;;;;29.80;54.92;98780.66;2055376;28;20050;-49
2023/07/15 01:35:55;;;;;;;9.25;4.60;;;;;;;29.80;54.86;98781.47;2059635;28;20105;-47
2023/07/15 01:36:56;;;;;;;10.48;5.63;;;;;;;29.81;54.59;98783.13;2057482;28;20057;-50
2023/07/15 01:37:59;;;;;;;11.88;4.72;;;;;;;29.82;54.52;98784.75;2050676;28;20046;-54
2023/07/15 01:39:00;;;;;;;6.80;4.13;;;;;;;29.80;54.94;98783.38;2056479;28;20054;-52
2023/07/15 01:40:03;;;;;;;11.10;5.75;;;;;;;29.83;54.79;98780.09;2057044;28;20651;-54
2023/07/15 01:41:03;;;;;;;10.93;5.22;;;;;;;29.81;54.92;98785.03;2056708;28;20091;-50
2023/07/15 01:42:06;;;;;;;9.88;5.03;;;;;;;29.80;54.95;98783.38;2057865;28;20464;-59
2023/07/15 01:43:06;;;;;;;14.30;5.15;;;;;;;29.81;54.78;98780.41;2059009;28;20077;-55
2023/07/15 01:44:08;;;;;;;11.95;5.70;;;;;;;29.82;54.81;98783.94;2059147;28;20069;-51
2023/07/15 01:45:10;;;;;;;13.25;5.38;;;;;;;29.84;55.04;98777.09;2059705;28;20096;-56
2023/07/15 01:46:11;;;;;;;12.38;6.15;;;;;;;29.86;54.87;98776.81;2058099;28;20995;-58
2023/07/15 01:47:13;;;;;;;10.38;5.20;;;;;;;29.89;54.87;98779.00;2051848;28;20081;-53
2023/07/15 01:48:14;;;;;;;8.50;4.95;;;;;;;29.92;54.44;98778.47;2054419;28;20057;-50
2023/07/15 01:49:15;;;;;;;13.35;5.70;;;;;;;29.95;54.53;98783.41;2055872;28;20054;-56
2023/07/15 01:50:17;;;;;;;8.48;4.85;;;;;;;29.91;54.58;98770.53;2057672;28;20050;-52
2023/07/15 01:51:18;;;;;;;13.80;5.82;;;;;;;29.90;54.78;98774.38;2057139;28;20054;-53
2023/07/15 01:52:20;;;;;;;7.93;4.43;;;;;;;29.86;54.74;98779.56;2055152;28;20058;-56
2023/07/15 01:53:22;;;;;;;8.38;4.45;;;;;;;29.87;54.60;98780.41;2058338;28;20061;-56
2023/07/15 01:54:24;;;;;;;6.88;4.97;;;;;;;29.83;54.33;98780.09;2055546;28;20108;-52
2023/07/15 01:55:25;;;;;;;10.07;5.88;;;;;;;29.87;54.69;98786.69;2060126;28;21075;-48
2023/07/15 01:56:27;;;;;;;10.70;5.15;;;;;;;29.82;54.79;98783.94;2056911;28;20046;-47
2023/07/15 01:57:30;;;;;;;10.90;5.80;;;;;;;29.73;55.17;98780.94;2054626;28;20105;-52
2023/07/15 01:58:33;;;;;;;13.95;6.70;;;;;;;29.68;55.46;98775.47;2054491;28;20069;-55
2023/07/15 01:59:33;;;;;;;9.52;5.13;;;;;;;29.62;55.32;98774.63;2056245;28;20097;-56
2023/07/15 02:00:35;;;;;;;12.23;5.80;;;;;;;29.66;55.50;98779.56;2056919;28;20638;-47
2023/07/15 02:01:36;;;;;;;11.15;4.40;;;;;;;29.68;54.97;98772.75;2054229;28;20046;-51
2023/07/15 02:02:38;;;;;;;9.10;4.93;;;;;;;29.72;54.23;98773.00;2057621;28;20085;-51
2023/07/15 02:03:39;;;;;;;9.15;4.55;;;;;;;29.74;54.56;98782.56;2054506;28;20467;-57
2023/07/15 02:04:41;;;;;;;11.30;4.65;;;;;;;29.73;54.55;98778.22;2053000;28;20097;-51
2023/07/15 02:05:42;;;;;;;8.13;5.05;;;;;;;29.75;54.86;98784.19;2054315;28;20799;-52
2023/07/15 02:06:44;;;;;;;11.60;5.47;;;;;;;29.74;54.77;98787.22;2057374;28;20141;-56
2023/07/15 02:07:45;;;;;;;14.88;5.40;;;;;;;29.71;55.14;98777.66;2056300;28;20061;-56
2023/07/15 02:08:48;;;;;;;10.10;5.38;;;;;;;29.71;55.01;98777.66;2056011;28;20042;-54
2023/07/15 02:09:49;;;;;;;9.60;5.10;;;;;;;29.70;55.02;98775.19;2056306;28;20093;-51
2023/07/15 02:10:51;;;;;;;10.88;4.93;;;;;;;29.70;55.29;98777.91;2057816;28;20050;-55
2023/07/15 02:11:52;;;;;;;12.20;5.65;;;;;;;29.71;55.16;98777.66;2057232;28;20050;-61
2023/07/15 02:12:54;;;;;;;10.93;5.47;;;;;;;29.70;54.50;98775.19;2057428;28;20054;-51
2023/07/15 02:13:55;;;;;;;14.40;5.10;;;;;;;29.69;54.90;98774.38;2053537;28;20119;-55
2023/07/15 02:14:56;;;;;;;10.38;4.32;;;;;;;29.67;54.54;98776.56;2058114;28;20512;-48
2023/07/15 02:15:57;;;;;;;13.38;4.82;;;;;;;29.69;54.67;98773.56;2057151;28;20094;-52
2023/07/15 02:16:59;;;;;;;8.65;5.35;;;;;;;29.67;54.92;98771.13;2056707;28;20065;-56
2023/07/15 02:18:00;;;;;;;9.05;4.35;;;;;;;29.67;55.10;98765.66;2057464;28;20146;-59
2023/07/15 02:19:02;;;;;;;9.77;5.30;;;;;;;29.66;55.11;98769.44;2054706;28;20069;-56
2023/07/15 02:20:06;;;;;;;12.68;4.90;;;;;;;29.68;55.32;98771.94;2054663;28;20038;-57
2023/07/15 02:21:07;;;;;;;6.97;5.25;;;;;;;29.67;54.76;98765.66;2055051;28;20085;-56
2023/07/15 02:22:09;;;;;;;8.73;5.18;;;;;;;29.68;54.42;98758.25;2055204;28;21208;-47
2023/07/15 02:23:11;;;;;;;7.10;4.80;;;;;;;29.66;54.14;98760.44;2058056;28;20109;-56
2023/07/15 02:24:14;;;;;;;8.38;4.95;;;;;;;29.67;53.66;98757.44;2057707;28;20050;-53
2023/07/15 02:25:16;;;;;;;8.15;4.97;;;;;;;29.68;54.08;98764.53;2057370;28;20425;-55
2023/07/15 02:26:18;;;;;;;15.02;4.80;;;;;;;29.65;54.54;98756.88;2059698;28;20061;-59
2023/07/15 02:27:19;;;;;;;11.18;5.15;;;;;;;29.67;54.58;98754.72;2060134;28;20054;-54
2023/07/15 02:28:21;;;;;;;10.55;5.03;;;;;;;29.70;54.90;98756.03;2059495;28;20130;-60
2023/07/15 02:29:23;;;;;;;10.68;5.60;;;;;;;29.69;54.89;98751.69;2057539;28;20208;-57
2023/07/15 02:30:24;;;;;;;13.05;6.40;;;;;;;29.69;55.06;98762.63;2058221;28;20046;-50
2023/07/15 02:31:25;;;;;;;8.27;4.95;;;;;;;29.66;55.25;98758.50;2059503;28;20073;-50
2023/07/15 02:32:38;;;;;;;11.10;5.50;;;;;;;29.65;55.29;98758.81;2058648;28;20061;-49
2023/07/15 02:33:40;;;;;;;12.90;5.72;;;;;;;29.61;55.36;98762.06;2057551;28;20061;-56
2023/07/15 02:34:41;;;;;;;15.07;6.30;;;;;;;29.62;55.24;98760.97;2064869;28;20165;-53
2023/07/15 02:35:43;;;;;;;9.15;4.97;;;;;;;29.65;55.17;98758.81;2060714;28;20038;-51
2023/07/15 02:36:44;;;;;;;11.00;5.82;;;;;;;29.67;55.40;98759.34;2056483;28;20089;-50
2023/07/15 02:37:45;;;;;;;14.18;6.30;;;;;;;29.67;55.19;98753.88;2058710;28;20038;-53
2023/07/15 02:38:46;;;;;;;9.05;4.50;;;;;;;29.71;55.14;98757.72;2064885;28;20141;-57
2023/07/15 02:39:50;;;;;;;9.57;4.95;;;;;;;29.67;54.68;98757.44;2058009;28;20047;-55
2023/07/15 02:40:50;;;;;;;10.13;5.15;;;;;;;29.64;55.37;98757.16;2059339;28;20046;-53
2023/07/15 02:41:52;;;;;;;10.02;5.50;;;;;;;29.68;55.01;98753.59;2057408;28;20126;-55
2023/07/15 02:42:53;;;;;;;14.00;5.30;;;;;;;29.69;54.90;98754.41;2061264;28;20058;-47
2023/07/15 02:43:55;;;;;;;6.70;4.68;;;;;;;29.69;54.84;98765.34;2056977;28;20046;-57
2023/07/15 02:44:56;;;;;;;10.52;4.93;;;;;;;29.63;55.05;98759.06;2059552;28;20513;-58
2023/07/15 02:45:58;;;;;;;7.40;5.00;;;;;;;29.64;55.06;98768.09;2060581;28;20153;-48
2023/07/15 02:46:59;;;;;;;8.35;4.18;;;;;;;29.64;54.79;98762.63;2059241;28;20101;-47
2023/07/15 02:48:01;;;;;;;9.23;5.95;;;;;;;29.62;54.58;98762.88;2056333;28;20066;-56
2023/07/15 02:49:02;;;;;;;12.95;5.40;;;;;;;29.64;54.92;98754.41;2059049;28;20514;-59
2023/07/15 02:50:06;;;;;;;9.57;4.50;;;;;;;29.65;54.98;98765.09;2057990;28;20054;-50
2023/07/15 02:51:07;;;;;;;8.98;5.00;;;;;;;29.64;55.28;98762.63;2059377;28;20054;-55
2023/07/15 02:52:08;;;;;;;14.18;5.20;;;;;;;29.58;55.27;98757.13;2057351;28;20052;-53
2023/07/15 02:53:09;;;;;;;8.40;4.72;;;;;;;29.60;55.17;98763.13;2060820;28;20157;-52
2023/07/15 02:54:11;;;;;;;10.75;6.00;;;;;;;29.58;55.09;98759.84;2057378;28;20478;-57
2023/07/15 02:55:13;;;;;;;9.45;5.50;;;;;;;29.61;55.09;98759.31;2055313;28;20046;-58
2023/07/15 02:56:15;;;;;;;9.43;5.70;;;;;;;29.62;55.17;98763.69;2060396;28;20921;-54
2023/07/15 02:57:17;;;;;;;9.13;4.97;;;;;;;29.60;55.07;98759.59;2059962;28;20053;-56
2023/07/15 02:58:19;;;;;;;13.07;5.55;;;;;;;29.60;55.48;98765.06;2061372;28;20046;-48
2023/07/15 02:59:19;;;;;;;9.15;4.95;;;;;;;29.58;55.24;98757.13;2058398;28;20042;-51
2023/07/15 03:00:22;;;;;;;11.77;5.00;;;;;;;29.54;55.41;98756.03;2059920;28;20133;-58
2023/07/15 03:01:24;;;;;;;9.20;5.15;;;;;;;29.53;55.29;98762.59;2058839;28;20049;-50
2023/07/15 03:02:25;;;;;;;9.25;4.47;;;;;;;29.56;55.12;98753.00;2060177;28;20050;-53
2023/07/15 03:03:27;;;;;;;10.68;6.30;;;;;;;29.55;54.96;98754.94;2061946;28;20497;-51
2023/07/15 03:04:28;;;;;;;11.40;4.82;;;;;;;29.60;54.88;98759.59;2058739;28;20554;-48
2023/07/15 03:05:29;;;;;;;10.75;4.80;;;;;;;29.58;54.84;98757.13;2061238;28;20125;-54
2023/07/15 03:06:32;;;;;;;9.68;5.60;;;;;;;29.58;54.91;98754.38;2060007;28;20316;-51
2023/07/15 03:07:35;;;;;;;9.70;5.28;;;;;;;29.55;55.16;98756.84;2059234;28;20054;-50
2023/07/15 03:08:36;;;;;;;7.30;5.30;;;;;;;29.60;55.18;98760.41;2060873;28;20039;-51
2023/07/15 03:09:37;;;;;;;8.85;5.22;;;;;;;29.61;54.93;98762.06;2060180;28;20133;-56
2023/07/15 03:10:41;;;;;;;11.45;6.20;;;;;;;29.59;54.88;98757.97;2056488;28;20046;-53
2023/07/15 03:11:43;;;;;;;7.72;5.13;;;;;;;29.60;54.68;98754.13;2058631;28;20042;-56
2023/07/15 03:12:44;;;;;;;8.95;4.63;;;;;;;29.61;54.24;98761.22;2059739;28;20053;-53
2023/07/15 03:13:46;;;;;;;9.75;4.45;;;;;;;29.58;54.62;98761.75;2060332;28;20074;-55
2023/07/15 03:14:47;;;;;;;8.60;4.60;;;;;;;29.57;55.12;98760.13;2059914;28;22572;-56
2023/07/15 03:15:49;;;;;;;12.23;5.82;;;;;;;29.54;54.59;98758.75;2061199;28;20061;-51
2023/07/15 03:16:49;;;;;;;8.85;5.07;;;;;;;29.57;54.92;98765.59;2059855;28;20428;-52
2023/07/15 03:17:51;;;;;;;16.00;5.88;;;;;;;29.58;54.69;98762.56;2060745;28;20050;-52
2023/07/15 03:18:52;;;;;;;11.10;5.18;;;;;;;29.57;55.04;98766.41;2056575;28;20149;-51
2023/07/15 03:19:54;;;;;;;11.32;5.35;;;;;;;29.53;55.23;98759.03;2061097;28;20065;-54
2023/07/15 03:20:56;;;;;;;8.32;5.53;;;;;;;29.53;55.17;98764.50;2060027;28;20070;-50
2023/07/15 03:21:58;;;;;;;12.27;5.25;;;;;;;29.53;55.39;98761.75;2060369;28;20058;-55
2023/07/15 03:22:59;;;;;;;8.32;5.20;;;;;;;29.53;55.12;98759.88;2060515;28;20089;-48
2023/07/15 03:24:01;;;;;;;8.30;5.07;;;;;;;29.51;55.45;98761.22;2060305;28;20488;-51
2023/07/15 03:25:02;;;;;;;7.05;4.47;;;;;;;29.52;55.22;98768.31;2060359;28;20081;-53
2023/07/15 03:26:05;;;;;;;9.40;4.82;;;;;;;29.51;55.44;98767.50;2060438;28;20621;-54
2023/07/15 03:27:06;;;;;;;8.20;5.68;;;;;;;29.52;55.15;98762.88;2059567;28;20059;-59
2023/07/15 03:28:08;;;;;;;12.00;5.13;;;;;;;29.50;55.34;98765.03;2055496;28;20062;-52
2023/07/15 03:29:09;;;;;;;9.40;4.60;;;;;;;29.52;55.00;98769.13;2057908;28;20061;-51
2023/07/15 03:30:11;;;;;;;12.48;5.15;;;;;;;29.53;54.92;98769.94;2060218;28;20046;-46
2023/07/15 03:31:12;;;;;;;8.35;5.55;;;;;;;29.53;54.87;98773.53;2060147;28;20614;-56
2023/07/15 03:32:14;;;;;;;14.30;5.55;;;;;;;29.57;54.77;98782.00;2060224;28;20057;-51
2023/07/15 03:33:15;;;;;;;15.38;5.55;;;;;;;29.58;55.11;98776.25;2059955;28;20662;-53
2023/07/15 03:34:19;;;;;;;7.97;5.15;;;;;;;29.60;54.75;98773.25;2057992;28;21332;-50
2023/07/15 03:35:20;;;;;;;11.98;5.18;;;;;;;29.60;54.73;98771.34;2059362;28;20050;-54
2023/07/15 03:36:24;;;;;;;6.55;5.15;;;;;;;29.61;54.71;98778.47;2057524;28;20394;-49
2023/07/15 03:37:25;;;;;;;11.48;5.57;;;;;;;29.58;54.98;98775.44;2061074;28;20054;-48
2023/07/15 03:38:27;;;;;;;8.10;4.60;;;;;;;29.58;54.90;98775.44;2059649;28;20078;-55
2023/07/15 03:39:28;;;;;;;8.98;4.57;;;;;;;29.60;54.76;98781.44;2062880;28;20125;-49
2023/07/15 03:40:29;;;;;;;8.63;4.95;;;;;;;29.59;54.86;98777.91;2061339;28;20061;-52
2023/07/15 03:41:32;;;;;;;8.50;5.68;;;;;;;29.57;54.95;98776.53;2059892;28;20054;-57
2023/07/15 03:42:34;;;;;;;9.15;4.65;;;;;;;29.53;55.20;98781.72;2059724;28;20078;-59
2023/07/15 03:43:35;;;;;;;10.27;5.78;;;;;;;29.54;54.81;98777.09;2058703;28;20050;-53
2023/07/15 03:44:37;;;;;;;7.63;4.63;;;;;;;29.49;55.16;98779.81;2058829;28;20050;-56
2023/07/15 03:45:38;;;;;;;8.77;5.50;;;;;;;29.51;55.19;98778.44;2059897;28;20053;-54
2023/07/15 03:46:39;;;;;;;11.07;5.55;;;;;;;29.51;55.19;98778.44;2060416;28;20136;-60
2023/07/15 03:47:40;;;;;;;7.80;4.55;;;;;;;29.50;55.32;98775.97;2060131;28;20078;-49
2023/07/15 03:48:42;;;;;;;14.48;5.93;;;;;;;29.49;55.18;98785.28;2059770;28;20118;-53
2023/07/15 03:49:43;;;;;;;8.98;5.00;;;;;;;29.50;54.96;98782.25;2059043;28;20060;-52
2023/07/15 03:50:45;;;;;;;9.70;5.70;;;;;;;29.49;55.23;98775.16;2060623;28;20042;-51
2023/07/15 03:51:46;;;;;;;5.97;5.00;;;;;;;29.48;55.07;98772.72;2060011;28;20062;-49
2023/07/15 03:52:48;;;;;;;9.52;5.65;;;;;;;29.50;55.05;98778.69;2057951;28;20509;-52
2023/07/15 03:53:49;;;;;;;11.73;5.63;;;;;;;29.49;54.88;98780.63;2058613;28;20042;-51
2023/07/15 03:54:51;;;;;;;10.60;4.80;;;;;;;29.48;54.87;98778.19;2058355;28;20082;-49
2023/07/15 03:55:52;;;;;;;8.55;4.90;;;;;;;29.50;54.69;98776.78;2068388;28;20468;-50
2023/07/15 03:56:55;;;;;;;8.00;4.72;;;;;;;29.51;54.74;98777.63;2067736;28;20050;-48
2023/07/15 03:57:55;;;;;;;13.13;5.30;;;;;;;29.48;54.59;98779.00;2060099;28;20069;-49
2023/07/15 03:58:59;;;;;;;13.50;5.47;;;;;;;29.47;54.77;98777.34;2056216;28;20053;-49
2023/07/15 03:59:59;;;;;;;8.57;5.38;;;;;;;29.49;54.96;98774.34;2059668;28;20046;-48
2023/07/15 04:01:01;;;;;;;11.15;5.38;;;;;;;29.48;54.36;98779.00;2062002;28;20050;-56
2023/07/15 04:02:02;;;;;;;12.02;5.57;;;;;;;29.48;54.66;98776.25;2055315;28;20165;-51
2023/07/15 04:03:04;;;;;;;11.52;6.05;;;;;;;29.48;54.62;98769.97;2053273;28;20054;-51
2023/07/15 04:04:08;;;;;;;9.27;5.40;;;;;;;29.50;54.51;98776.78;2055866;28;20809;-57
2023/07/15 04:05:10;;;;;;;8.73;4.93;;;;;;;29.49;54.56;98775.16;2062047;28;20058;-48
2023/07/15 04:06:12;;;;;;;7.93;4.38;;;;;;;29.49;54.58;98775.16;2063205;28;20050;-56
2023/07/15 04:07:13;;;;;;;11.95;4.78;;;;;;;29.50;54.42;98776.78;2064636;28;20054;-50
2023/07/15 04:08:14;;;;;;;7.20;4.20;;;;;;;29.50;54.42;98771.31;2061514;28;20116;-49
2023/07/15 04:09:17;;;;;;;10.32;5.03;;;;;;;29.49;54.58;98766.13;2058561;28;20054;-48
2023/07/15 04:10:18;;;;;;;8.40;5.05;;;;;;;29.51;54.82;98763.97;2059629;28;20177;-53
2023/07/15 04:11:20;;;;;;;9.85;5.47;;;;;;;29.50;54.94;98767.78;2059222;28;20579;-47
2023/07/15 04:12:22;;;;;;;9.63;5.78;;;;;;;29.50;54.79;98771.31;2060696;28;20057;-50
2023/07/15 04:13:24;;;;;;;11.48;5.82;;;;;;;29.50;54.89;98770.50;2056929;28;20149;-56
2023/07/15 04:14:25;;;;;;;9.05;5.50;;;;;;;29.48;54.62;98767.25;2057876;28;20074;-59
2023/07/15 04:15:27;;;;;;;13.10;5.68;;;;;;;29.47;54.84;98766.41;2056339;28;20054;-52
2023/07/15 04:16:29;;;;;;;12.27;5.32;;;;;;;29.50;55.00;98768.59;2060615;28;20052;-51
2023/07/15 04:17:30;;;;;;;11.98;6.00;;;;;;;29.49;55.02;98775.16;2057887;28;20061;-58
2023/07/15 04:18:31;;;;;;;10.13;5.53;;;;;;;29.53;54.80;98775.41;2058645;28;20132;-51
2023/07/15 04:19:33;;;;;;;10.07;6.63;;;;;;;29.47;54.66;98774.59;2059583;28;20564;-50
2023/07/15 04:20:34;;;;;;;11.15;6.53;;;;;;;29.50;54.84;98773.22;2059624;28;20054;-55
2023/07/15 04:21:36;;;;;;;13.85;6.50;;;;;;;29.48;55.23;98768.06;2059785;28;20056;-49
2023/07/15 04:22:37;;;;;;;12.48;6.20;;;;;;;29.49;54.65;98768.88;2058001;28;20046;-54
2023/07/15 04:23:38;;;;;;;13.73;6.20;;;;;;;29.51;54.95;98769.44;2059868;28;20057;-50
2023/07/15 04:24:39;;;;;;;11.70;5.60;;;;;;;29.50;54.76;98770.50;2059928;28;20046;-52
2023/07/15 04:25:41;;;;;;;11.48;6.20;;;;;;;29.48;55.12;98773.53;2059620;28;20047;-53
2023/07/15 04:26:43;;;;;;;9.80;6.00;;;;;;;29.48;55.03;98768.06;2059620;28;20046;-56
2023/07/15 04:27:46;;;;;;;17.65;7.25;;;;;;;29.50;54.95;98773.22;2067579;28;20104;-53
2023/07/15 04:28:47;;;;;;;12.52;6.28;;;;;;;29.47;54.89;98777.34;2065673;28;20046;-54
2023/07/15 04:29:49;;;;;;;13.82;5.90;;;;;;;29.45;54.85;98770.50;2057182;28;20054;-59
2023/07/15 04:30:50;;;;;;;14.45;6.07;;;;;;;29.48;54.73;98775.44;2054946;28;20054;-50
2023/07/15 04:31:51;;;;;;;12.45;5.78;;;;;;;29.47;54.77;98774.59;2064513;28;20060;-51
2023/07/15 04:32:52;;;;;;;13.15;6.00;;;;;;;29.46;54.68;98775.69;2066217;28;20054;-50
2023/07/15 04:33:54;;;;;;;11.23;5.78;;;;;;;29.45;54.67;98776.81;2068598;28;20050;-53
2023/07/15 04:34:55;;;;;;;9.02;5.60;;;;;;;29.47;54.41;98771.88;2062930;28;20057;-53
2023/07/15 04:35:57;;;;;;;11.18;6.07;;;;;;;29.45;54.68;98768.59;2064868;28;20046;-52
2023/07/15 04:36:58;;;;;;;12.27;5.38;;;;;;;29.45;54.59;98768.59;2068512;28;20046;-50
2023/07/15 04:38:00;;;;;;;8.00;4.95;;;;;;;29.45;54.63;98765.88;2067203;28;20053;-50
2023/07/15 04:39:01;;;;;;;14.13;5.55;;;;;;;29.46;54.78;98763.97;2065958;28;20129;-49
2023/07/15 04:40:04;;;;;;;11.00;5.57;;;;;;;29.42;54.72;98755.50;2067213;28;20061;-49
2023/07/15 04:41:05;;;;;;;9.98;6.03;;;;;;;29.42;54.78;98769.16;2066483;28;20046;-50
2023/07/15 04:42:06;;;;;;;8.85;5.43;;;;;;;29.45;54.57;98763.16;2064912;28;20054;-50
2023/07/15 04:43:09;;;;;;;9.90;6.13;;;;;;;29.44;54.72;98766.94;2066791;28;20397;-52
2023/07/15 04:44:10;;;;;;;12.73;5.93;;;;;;;29.43;54.83;98765.31;2065658;28;20570;-48
2023/07/15 04:45:11;;;;;;;11.00;5.95;;;;;;;29.44;54.93;98761.47;2065301;28;20045;-51
2023/07/15 04:46:14;;;;;;;9.82;5.20;;;;;;;29.46;54.41;98764.78;2065714;28;20182;-51
2023/07/15 04:47:16;;;;;;;13.18;5.43;;;;;;;29.41;54.75;98756.56;2064514;28;20794;-49
2023/07/15 04:48:17;;;;;;;10.50;5.03;;;;;;;29.45;54.73;98763.16;2061837;28;20065;-51
2023/07/15 04:49:19;;;;;;;14.63;5.70;;;;;;;29.45;54.75;98771.34;2066323;28;20137;-51
2023/07/15 04:50:20;;;;;;;11.82;6.38;;;;;;;29.43;54.82;98761.78;2067229;28;20369;-49